Time;durP1;ratioP1;P1;durP2;ratioP2;P2;SDS_P1;SDS_P2;PMS_P1;PMS_P2;Temp;Humidity;BMP_temperature;BMP_pressure;BME280_temperature;BME280_humidity;BME280_pressure;Samples;Min_cycle;Max_cycle;Signal;HPM_P1;HPM_P2
2022/06/03 00:01:03;;;;;;;2.60;2.40;;;12.30;99.90;;;;;;5013150;28;20186;-67
2022/06/03 00:04:06;;;;;;;3.23;2.57;;;12.20;99.90;;;;;;5013856;28;20228;-67
2022/06/03 00:06:51;;;;;;;2.77;2.40;;;12.00;99.90;;;;;;5014372;28;20549;-67
2022/06/03 00:09:27;;;;;;;3.63;2.23;;;11.90;99.90;;;;;;5013972;28;20281;-67
2022/06/03 00:12:26;;;;;;;2.80;2.27;;;12.00;99.90;;;;;;5024295;28;20241;-68
2022/06/03 00:15:17;;;;;;;2.20;2.00;;;12.00;99.90;;;;;;5036471;28;20203;-67
2022/06/03 00:18:09;;;;;;;2.37;2.17;;;11.90;99.90;;;;;;5036142;28;20577;-68
2022/06/03 00:20:54;;;;;;;3.00;2.20;;;11.90;99.90;;;;;;5035662;28;20197;-66
2022/06/03 00:23:49;;;;;;;2.73;2.50;;;11.90;99.90;;;;;;5033896;28;20173;-66
2022/06/03 00:26:39;;;;;;;2.83;2.63;;;11.90;99.90;;;;;;5036237;28;20593;-70
2022/06/03 00:29:32;;;;;;;2.93;2.50;;;11.80;99.90;;;;;;5036283;28;20319;-68
2022/06/03 00:32:30;;;;;;;3.10;2.70;;;11.80;99.90;;;;;;5035928;28;20184;-66
2022/06/03 00:35:11;;;;;;;4.13;2.67;;;11.60;99.90;;;;;;5016000;28;20529;-67
2022/06/03 00:37:57;;;;;;;3.17;2.17;;;11.50;99.90;;;;;;5036338;28;20175;-66
2022/06/03 00:40:25;;;;;;;2.13;1.90;;;11.60;99.90;;;;;;5036194;28;20161;-66
2022/06/03 00:43:22;;;;;;;2.93;2.23;;;11.60;99.90;;;;;;5037442;28;20175;-66
2022/06/03 00:46:14;;;;;;;2.30;2.10;;;11.50;99.90;;;;;;5040587;28;20564;-66
2022/06/03 00:48:45;;;;;;;3.07;2.43;;;11.30;99.90;;;;;;5035452;28;20157;-66
2022/06/03 00:51:22;;;;;;;2.50;2.30;;;11.40;99.90;;;;;;5035193;28;20211;-66
2022/06/03 00:54:29;;;;;;;2.33;2.13;;;11.40;99.90;;;;;;5034751;28;20161;-66
2022/06/03 00:57:07;;;;;;;4.70;2.43;;;11.20;99.90;;;;;;5015511;28;20208;-67
2022/06/03 01:00:01;;;;;;;2.50;2.30;;;11.20;99.90;;;;;;5034988;28;20601;-66
2022/06/03 01:02:47;;;;;;;3.10;2.87;;;11.10;99.90;;;;;;5035622;28;20231;-66
2022/06/03 01:05:54;;;;;;;6.37;3.00;;;11.20;99.90;;;;;;5035189;28;20204;-67
2022/06/03 01:08:48;;;;;;;3.37;2.73;;;11.20;99.90;;;;;;5019954;28;20192;-67
2022/06/03 01:11:56;;;;;;;3.53;2.13;;;11.20;99.90;;;;;;5033654;28;20177;-67
2022/06/03 01:14:36;;;;;;;3.30;3.00;;;11.10;99.90;;;;;;5035239;28;20196;-67
2022/06/03 01:17:07;;;;;;;3.93;3.17;;;11.10;99.90;;;;;;5035272;28;20165;-68
2022/06/03 01:19:44;;;;;;;2.87;2.67;;;11.10;99.90;;;;;;5035012;28;20181;-66
2022/06/03 01:22:42;;;;;;;4.73;2.60;;;11.10;99.90;;;;;;5036970;28;20163;-66
2022/06/03 01:25:29;;;;;;;3.53;2.60;;;11.10;99.90;;;;;;5039415;28;20164;-67
2022/06/03 01:28:24;;;;;;;2.50;2.30;;;10.90;99.90;;;;;;5037401;28;20157;-67
2022/06/03 01:31:22;;;;;;;3.57;2.73;;;10.90;99.90;;;;;;5034777;28;20203;-67
2022/06/03 01:34:03;;;;;;;4.10;2.60;;;10.90;99.90;;;;;;5034332;28;20173;-67
2022/06/03 01:36:53;;;;;;;3.37;2.80;;;10.90;99.90;;;;;;5034000;28;20169;-67
2022/06/03 01:39:48;;;;;;;2.97;2.60;;;10.80;99.90;;;;;;5034649;28;20161;-66
2022/06/03 01:42:32;;;;;;;4.00;2.87;;;10.80;99.90;;;;;;5023740;28;20740;-66
2022/06/03 01:45:19;;;;;;;4.23;2.90;;;10.90;99.90;;;;;;5033876;28;20605;-67
2022/06/03 01:48:02;;;;;;;3.93;3.00;;;10.90;99.90;;;;;;5034610;28;20184;-67
2022/06/03 01:50:55;;;;;;;3.17;2.87;;;10.70;99.90;;;;;;5034069;28;20168;-65
2022/06/03 01:53:43;;;;;;;2.97;2.77;;;10.70;99.90;;;;;;5034279;28;20669;-66
2022/06/03 01:56:11;;;;;;;2.90;2.60;;;10.60;99.90;;;;;;5034079;28;20225;-66
2022/06/03 01:58:48;;;;;;;3.30;2.83;;;10.70;99.90;;;;;;5033941;28;20173;-67
2022/06/03 02:01:38;;;;;;;3.60;3.30;;;10.60;99.90;;;;;;5033491;28;20178;-67
2022/06/03 02:04:25;;;;;;;3.30;3.00;;;10.60;99.90;;;;;;5034039;28;20213;-68
2022/06/03 02:07:28;;;;;;;3.23;2.93;;;10.60;99.90;;;;;;5033641;28;20208;-68
2022/06/03 02:10:15;;;;;;;2.93;2.63;;;10.60;99.90;;;;;;5033600;28;20160;-67
2022/06/03 02:12:56;;;;;;;3.17;2.87;;;10.70;99.90;;;;;;5033703;28;20214;-67
2022/06/03 02:15:42;;;;;;;3.13;2.83;;;10.70;99.90;;;;;;5033477;28;20229;-67
2022/06/03 02:18:17;;;;;;;3.07;2.87;;;10.70;99.90;;;;;;5033501;28;20168;-66
2022/06/03 02:21:19;;;;;;;3.07;2.77;;;10.60;99.90;;;;;;5033443;28;20153;-67
2022/06/03 02:23:53;;;;;;;3.10;2.80;;;10.40;99.90;;;;;;5033376;28;20710;-67
2022/06/03 02:26:55;;;;;;;3.53;2.90;;;10.50;99.90;;;;;;5033533;28;20721;-66
2022/06/03 02:32:57;;;;;;;2.87;2.60;;;10.50;99.90;;;;;;5033208;28;20160;-67
2022/06/03 02:35:52;;;;;;;3.20;2.77;;;10.40;99.90;;;;;;5033531;28;20168;-66
2022/06/03 02:38:39;;;;;;;3.57;2.97;;;10.10;99.90;;;;;;5032700;28;20227;-66
2022/06/03 02:41:29;;;;;;;3.07;2.70;;;10.10;99.90;;;;;;5033210;28;20167;-66
2022/06/03 02:44:11;;;;;;;3.20;2.90;;;10.20;99.90;;;;;;5032268;28;20173;-67
2022/06/03 02:46:55;;;;;;;3.20;2.90;;;10.20;99.90;;;;;;5036551;28;20297;-66
2022/06/03 02:49:51;;;;;;;4.67;3.00;;;10.10;99.90;;;;;;5037380;28;20168;-67
2022/06/03 02:52:43;;;;;;;2.80;2.60;;;10.00;99.90;;;;;;5036938;28;20522;-67
2022/06/03 02:55:19;;;;;;;3.27;2.97;;;10.10;99.90;;;;;;5037067;28;20161;-68
2022/06/03 02:57:59;;;;;;;3.13;2.93;;;10.10;99.90;;;;;;5037481;28;20162;-67
2022/06/03 03:00:44;;;;;;;3.23;2.93;;;10.00;99.90;;;;;;5037095;28;20175;-67
2022/06/03 03:03:37;;;;;;;4.47;3.13;;;10.00;99.90;;;;;;5037591;28;20260;-65
2022/06/03 03:06:08;;;;;;;3.27;2.90;;;10.00;99.90;;;;;;5037430;28;20255;-67
2022/06/03 03:08:53;;;;;;;3.30;2.83;;;9.90;99.90;;;;;;5036746;28;20161;-66
2022/06/03 03:11:21;;;;;;;3.30;3.00;;;9.90;99.90;;;;;;5037137;28;20176;-64
2022/06/03 03:14:13;;;;;;;3.60;3.30;;;9.90;99.90;;;;;;5036796;28;20257;-66
2022/06/03 03:16:53;;;;;;;3.10;2.77;;;10.00;99.90;;;;;;5035455;28;20212;-65
2022/06/03 03:19:37;;;;;;;3.43;2.83;;;10.00;99.90;;;;;;5036589;28;20215;-65
2022/06/03 03:22:09;;;;;;;3.53;2.70;;;10.10;99.90;;;;;;5036566;28;20206;-67
2022/06/03 03:25:02;;;;;;;3.40;2.70;;;9.90;99.90;;;;;;5036534;28;20644;-68
2022/06/03 03:27:48;;;;;;;3.23;2.77;;;9.80;99.90;;;;;;5036094;28;20651;-66
2022/06/03 03:30:48;;;;;;;3.70;3.30;;;9.70;99.90;;;;;;5036492;28;20228;-67
2022/06/03 03:33:22;;;;;;;3.33;3.03;;;9.80;99.90;;;;;;5024439;28;20560;-66
2022/06/03 03:36:12;;;;;;;3.53;3.03;;;9.70;99.90;;;;;;5036522;28;20169;-65
2022/06/03 03:39:05;;;;;;;3.30;3.00;;;9.70;99.90;;;;;;5036543;28;20192;-65
2022/06/03 03:42:02;;;;;;;3.37;3.07;;;9.70;99.90;;;;;;5036605;28;20168;-66
2022/06/03 03:44:49;;;;;;;3.40;3.10;;;9.70;99.90;;;;;;5036827;28;20171;-66
2022/06/03 03:47:17;;;;;;;3.23;2.90;;;9.70;99.90;;;;;;5035744;28;20194;-66
2022/06/03 03:50:20;;;;;;;3.23;2.93;;;9.80;99.90;;;;;;5035754;28;20519;-67
2022/06/03 03:53:06;;;;;;;3.60;3.30;;;9.90;99.90;;;;;;5036247;28;20160;-65
2022/06/03 03:55:38;;;;;;;3.73;3.00;;;9.90;99.90;;;;;;5036106;28;20167;-65
2022/06/03 03:58:16;;;;;;;3.27;2.97;;;9.90;99.90;;;;;;5036750;28;20589;-67
2022/06/03 04:00:54;;;;;;;3.77;3.30;;;10.00;99.90;;;;;;5035753;28;20153;-68
2022/06/03 04:03:52;;;;;;;3.30;3.00;;;9.90;99.90;;;;;;5035952;28;20701;-66
2022/06/03 04:06:52;;;;;;;3.83;3.17;;;9.90;99.90;;;;;;5038617;28;20207;-66
2022/06/03 04:09:53;;;;;;;4.40;3.20;;;9.80;99.90;;;;;;5018200;28;20811;-67
2022/06/03 04:12:40;;;;;;;3.50;3.20;;;9.80;99.90;;;;;;5037641;28;20209;-66
2022/06/03 04:15:27;;;;;;;3.70;3.40;;;10.00;99.90;;;;;;5036020;28;20300;-65
2022/06/03 04:18:27;;;;;;;3.70;3.17;;;10.00;99.90;;;;;;5035457;28;20514;-68
2022/06/03 04:21:07;;;;;;;3.90;3.17;;;10.20;99.90;;;;;;5035812;28;20240;-66
2022/06/03 04:23:55;;;;;;;3.50;3.20;;;10.20;99.90;;;;;;5038903;28;20215;-65
2022/06/03 04:26:45;;;;;;;7.73;3.40;;;10.20;99.90;;;;;;5042189;28;20204;-65
2022/06/03 04:29:41;;;;;;;3.90;3.47;;;10.10;99.90;;;;;;5039815;28;20264;-66
2022/06/03 04:32:44;;;;;;;5.13;4.10;;;10.30;99.90;;;;;;5041907;28;20161;-67
2022/06/03 04:35:33;;;;;;;5.40;3.00;;;10.30;99.90;;;;;;5040895;28;20153;-65
2022/06/03 04:38:44;;;;;;;5.77;3.70;;;10.40;99.90;;;;;;5040979;28;20163;-65
2022/06/03 04:41:24;;;;;;;4.33;3.53;;;10.50;99.90;;;;;;5034770;28;20250;-65
2022/06/03 04:44:13;;;;;;;3.73;3.30;;;10.40;99.90;;;;;;5039131;28;20190;-67
2022/06/03 04:47:13;;;;;;;3.63;3.23;;;10.60;99.90;;;;;;5028156;28;20228;-69
2022/06/03 04:49:59;;;;;;;4.37;3.20;;;10.50;99.90;;;;;;5040659;28;20520;-67
2022/06/03 04:52:50;;;;;;;3.30;3.00;;;10.70;99.90;;;;;;5040174;28;20515;-67
2022/06/03 04:55:53;;;;;;;3.50;3.20;;;10.90;99.90;;;;;;5042507;28;20161;-67
2022/06/03 04:58:41;;;;;;;3.43;3.07;;;11.00;99.90;;;;;;5048363;28;20160;-66
2022/06/03 05:01:17;;;;;;;4.80;3.43;;;11.10;99.90;;;;;;5043235;28;20657;-66
2022/06/03 05:04:10;;;;;;;4.23;3.30;;;11.30;99.90;;;;;;5048391;28;20537;-66
2022/06/03 05:07:03;;;;;;;3.93;3.37;;;11.40;99.90;;;;;;5043631;28;20315;-67
2022/06/03 05:10:06;;;;;;;4.47;2.93;;;11.50;99.90;;;;;;5035843;28;20166;-70
2022/06/03 05:12:46;;;;;;;5.03;2.63;;;11.40;99.90;;;;;;5034961;28;20161;-70
2022/06/03 05:15:17;;;;;;;3.20;2.90;;;11.60;99.90;;;;;;5036104;28;20219;-68
2022/06/03 05:18:02;;;;;;;3.27;2.97;;;11.70;99.90;;;;;;5035960;28;20162;-67
2022/06/03 05:20:45;;;;;;;5.10;3.40;;;11.80;99.90;;;;;;5035191;28;20605;-66
2022/06/03 05:23:30;;;;;;;3.10;2.80;;;11.80;99.90;;;;;;5034279;28;20495;-66
2022/06/03 05:25:58;;;;;;;5.60;2.77;;;12.00;99.90;;;;;;5035525;28;20200;-65
2022/06/03 05:28:34;;;;;;;3.33;3.00;;;12.10;99.90;;;;;;5040930;28;20188;-68
2022/06/03 05:31:09;;;;;;;3.57;3.20;;;12.20;99.90;;;;;;5040881;28;20163;-66
2022/06/03 05:34:02;;;;;;;4.13;3.07;;;12.30;99.90;;;;;;5041373;28;20635;-66
2022/06/03 05:36:56;;;;;;;3.00;2.60;;;12.50;99.90;;;;;;5039534;28;20175;-66
2022/06/03 05:39:46;;;;;;;4.50;2.83;;;12.40;99.90;;;;;;5043132;28;20157;-67
2022/06/03 05:42:23;;;;;;;3.17;2.80;;;12.70;99.90;;;;;;5039294;28;20199;-66
2022/06/03 05:45:15;;;;;;;3.53;2.87;;;12.70;99.90;;;;;;5035153;28;20156;-66
2022/06/03 05:47:47;;;;;;;3.50;2.97;;;12.80;99.90;;;;;;5035168;28;20183;-66
2022/06/03 05:50:19;;;;;;;4.67;2.67;;;12.80;99.90;;;;;;5034505;28;20176;-66
2022/06/03 05:53:00;;;;;;;3.07;2.57;;;12.90;99.90;;;;;;5033179;28;20180;-66
2022/06/03 05:55:55;;;;;;;3.27;2.90;;;13.00;99.90;;;;;;5033675;28;20280;-67
2022/06/03 05:58:44;;;;;;;2.67;2.47;;;13.20;99.90;;;;;;5033250;28;20245;-66
2022/06/03 06:01:21;;;;;;;2.87;2.67;;;13.20;99.90;;;;;;5033965;28;20184;-65
2022/06/03 06:04:02;;;;;;;4.27;3.00;;;13.50;99.90;;;;;;5033472;28;20187;-66
2022/06/03 06:07:02;;;;;;;2.63;2.20;;;13.50;99.90;;;;;;5033376;28;20189;-66
2022/06/03 06:09:54;;;;;;;3.13;2.50;;;13.60;99.90;;;;;;5033431;28;20210;-65
2022/06/03 06:12:48;;;;;;;5.57;2.53;;;13.80;99.90;;;;;;5033690;28;20247;-67
2022/06/03 06:15:20;;;;;;;3.97;2.50;;;13.90;99.90;;;;;;5034203;28;20161;-68
2022/06/03 06:18:25;;;;;;;2.73;2.53;;;14.00;99.90;;;;;;5033815;28;20169;-69
2022/06/03 06:21:12;;;;;;;4.63;3.17;;;14.10;99.90;;;;;;5032452;28;20310;-66
2022/06/03 06:23:43;;;;;;;3.67;3.27;;;14.20;99.90;;;;;;5033785;28;20277;-66
2022/06/03 06:26:11;;;;;;;6.30;2.60;;;14.40;99.90;;;;;;5033054;28;20212;-66
2022/06/03 06:28:41;;;;;;;3.50;2.53;;;14.60;99.90;;;;;;5033121;28;20153;-66
2022/06/03 06:31:18;;;;;;;4.07;3.00;;;14.80;99.90;;;;;;5033145;28;20167;-67
2022/06/03 06:34:23;;;;;;;4.00;2.53;;;15.00;99.90;;;;;;5032881;28;20168;-67
2022/06/03 06:37:00;;;;;;;4.37;2.23;;;15.20;99.90;;;;;;5033447;28;20173;-66
2022/06/03 06:39:47;;;;;;;3.47;2.97;;;15.40;99.90;;;;;;5033155;28;20508;-67
2022/06/03 06:42:12;;;;;;;2.60;2.40;;;15.50;99.90;;;;;;5033275;28;20502;-68
2022/06/03 06:44:54;;;;;;;2.60;2.40;;;15.70;99.90;;;;;;5033199;28;20174;-67
2022/06/03 06:47:30;;;;;;;4.53;2.40;;;15.80;99.90;;;;;;5033050;28;20199;-69
2022/06/03 06:50:32;;;;;;;7.73;2.40;;;16.00;99.90;;;;;;5032732;28;20214;-67
2022/06/03 06:53:08;;;;;;;3.00;2.50;;;16.20;99.90;;;;;;5032994;28;20156;-67
2022/06/03 06:55:52;;;;;;;7.07;2.57;;;16.20;99.90;;;;;;5033494;28;20172;-67
2022/06/03 06:58:47;;;;;;;3.57;2.30;;;16.50;99.90;;;;;;5032242;28;20176;-67
2022/06/03 07:01:20;;;;;;;5.67;2.27;;;16.90;99.90;;;;;;5033466;28;20225;-68
2022/06/03 07:03:51;;;;;;;2.23;2.03;;;17.10;99.90;;;;;;5033458;28;20274;-67
2022/06/03 07:06:43;;;;;;;8.52;2.42;;;17.40;99.90;;;;;;5033037;28;20536;-67
2022/06/03 07:09:33;;;;;;;4.00;2.30;;;17.70;99.90;;;;;;5033424;28;20180;-67
2022/06/03 07:12:15;;;;;;;3.10;2.78;;;17.80;99.90;;;;;;5031981;28;20515;-67
2022/06/03 07:15:13;;;;;;;2.92;2.42;;;18.00;99.90;;;;;;5033219;28;20175;-65
2022/06/03 07:21:18;;;;;;;3.33;2.13;;;18.40;99.90;;;;;;5032319;28;20172;-67
2022/06/03 07:23:57;;;;;;;2.80;2.20;;;18.90;99.90;;;;;;5033041;28;20192;-67
2022/06/03 07:26:46;;;;;;;5.63;2.08;;;19.00;99.90;;;;;;5032878;28;20636;-67
2022/06/03 07:29:17;;;;;;;1.55;1.45;;;19.20;99.90;;;;;;5032809;28;20219;-66
2022/06/03 07:32:21;;;;;;;2.05;1.85;;;19.30;99.90;;;;;;5034514;28;20256;-67
2022/06/03 07:35:00;;;;;;;3.75;2.00;;;19.50;99.90;;;;;;5037721;28;20173;-68
2022/06/03 07:37:45;;;;;;;2.30;1.70;;;19.90;99.90;;;;;;5036085;28;20608;-68
2022/06/03 07:40:19;;;;;;;3.17;1.83;;;20.00;99.90;;;;;;5036770;28;20165;-66
2022/06/03 07:42:53;;;;;;;1.90;1.52;;;20.10;98.50;;;;;;5036499;28;20157;-66
2022/06/03 07:45:37;;;;;;;2.47;1.45;;;20.30;96.30;;;;;;5036346;28;20165;-67
2022/06/03 07:48:12;;;;;;;4.10;1.92;;;20.50;95.40;;;;;;5036529;28;20165;-67
2022/06/03 07:50:46;;;;;;;3.10;1.50;;;20.50;93.00;;;;;;5036701;28;20544;-67
2022/06/03 07:53:39;;;;;;;1.50;1.40;;;20.60;94.00;;;;;;5036301;28;20152;-67
2022/06/03 07:56:05;;;;;;;3.92;1.30;;;20.70;92.80;;;;;;5033366;28;20188;-67
2022/06/03 07:58:35;;;;;;;1.85;1.70;;;20.90;91.70;;;;;;5035109;28;20758;-67
2022/06/03 08:01:01;;;;;;;2.47;1.30;;;20.90;91.90;;;;;;5036159;28;20177;-67
2022/06/03 08:03:36;;;;;;;1.40;1.30;;;21.20;91.40;;;;;;5036059;28;20235;-66
2022/06/03 08:06:04;;;;;;;2.08;1.42;;;21.30;90.40;;;;;;5036025;28;20215;-67
2022/06/03 08:11:16;;;;;;;4.40;2.85;;;21.40;89.70;;;;;;5035550;28;20307;-69
2022/06/03 08:13:41;;;;;;;7.30;1.85;;;21.50;88.60;;;;;;5035688;28;20239;-70
2022/06/03 08:16:36;;;;;;;1.77;1.48;;;21.60;89.80;;;;;;5035597;28;20496;-68
2022/06/03 08:19:12;;;;;;;4.85;3.10;;;21.90;89.50;;;;;;5035806;28;20263;-68
2022/06/03 08:21:51;;;;;;;1.70;1.60;;;21.80;86.80;;;;;;5034871;28;20184;-67
2022/06/03 08:24:21;;;;;;;3.97;1.55;;;21.90;86.40;;;;;;5035780;28;20227;-66
2022/06/03 08:26:52;;;;;;;1.65;1.50;;;21.90;86.50;;;;;;5035825;28;20290;-65
2022/06/03 08:29:44;;;;;;;2.10;1.77;;;21.90;87.10;;;;;;5035968;28;20246;-66
2022/06/03 08:32:40;;;;;;;3.10;1.42;;;22.30;86.80;;;;;;5036043;28;20184;-66
2022/06/03 08:35:15;;;;;;;2.03;1.85;;;22.30;82.10;;;;;;5034490;28;20540;-68
2022/06/03 08:37:51;;;;;;;1.60;1.50;;;22.50;81.90;;;;;;5035527;28;20600;-67
2022/06/03 08:40:41;;;;;;;2.10;1.80;;;22.60;81.80;;;;;;5035139;28;20180;-68
2022/06/03 08:43:26;;;;;;;2.92;1.60;;;22.70;80.80;;;;;;5034480;28;20196;-67
2022/06/03 08:46:00;;;;;;;2.20;1.60;;;22.80;80.10;;;;;;5035257;28;20236;-66
2022/06/03 08:48:33;;;;;;;1.88;1.50;;;22.90;80.50;;;;;;5035131;28;20157;-67
2022/06/03 08:51:15;;;;;;;2.28;1.75;;;23.00;80.10;;;;;;5035529;28;20165;-67
2022/06/03 08:53:57;;;;;;;2.38;1.70;;;23.00;79.30;;;;;;5035508;28;20218;-68
2022/06/03 08:56:29;;;;;;;1.98;1.60;;;23.00;78.20;;;;;;5035348;28;20593;-67
2022/06/03 08:58:56;;;;;;;1.60;1.50;;;23.00;76.00;;;;;;5035567;28;20205;-67
2022/06/03 09:02:00;;;;;;;1.50;1.40;;;23.00;77.30;;;;;;5034021;28;20621;-68
2022/06/03 09:04:33;;;;;;;1.88;1.77;;;23.10;75.70;;;;;;5034967;28;20183;-68
2022/06/03 09:07:06;;;;;;;1.40;1.30;;;23.30;77.10;;;;;;5035719;28;20200;-67
2022/06/03 09:09:36;;;;;;;1.85;1.50;;;23.60;75.50;;;;;;5033897;28;20192;-68
2022/06/03 09:12:56;;;;;;;1.75;1.65;;;23.80;74.40;;;;;;5044704;28;20224;-67
2022/06/03 09:15:26;;;;;;;5.88;1.60;;;23.90;72.90;;;;;;5043499;28;20165;-68
2022/06/03 09:18:02;;;;;;;1.63;1.50;;;24.00;73.00;;;;;;5059625;28;20521;-67
2022/06/03 09:20:49;;;;;;;5.18;1.45;;;23.90;72.00;;;;;;5055283;28;20194;-68
2022/06/03 09:23:18;;;;;;;3.72;1.42;;;24.10;71.30;;;;;;5035145;28;20192;-66
2022/06/03 09:25:48;;;;;;;1.65;1.55;;;24.00;70.00;;;;;;5034950;28;20342;-67
2022/06/03 09:28:21;;;;;;;1.85;1.70;;;24.30;69.80;;;;;;5050775;28;20203;-68
2022/06/03 09:30:49;;;;;;;1.98;1.70;;;24.20;67.20;;;;;;5035249;28;20204;-65
2022/06/03 09:33:19;;;;;;;4.05;2.90;;;24.30;66.20;;;;;;5035528;28;20172;-69
2022/06/03 09:35:47;;;;;;;1.90;1.60;;;24.20;65.80;;;;;;5035396;28;20169;-69
2022/06/03 09:38:16;;;;;;;2.38;1.77;;;24.30;65.80;;;;;;5035811;28;20192;-76
2022/06/03 09:40:44;;;;;;;1.67;1.58;;;24.50;65.70;;;;;;5053921;28;20188;-73
2022/06/03 09:43:20;;;;;;;2.15;1.70;;;24.70;67.30;;;;;;5037941;28;20306;-76
2022/06/03 09:45:49;;;;;;;3.70;1.63;;;24.70;65.70;;;;;;5034318;28;20665;-68
2022/06/03 09:48:21;;;;;;;6.25;2.13;;;24.70;62.80;;;;;;5033698;28;20168;-75
2022/06/03 09:50:50;;;;;;;2.38;1.73;;;25.00;62.60;;;;;;5048894;28;20254;-75
2022/06/03 09:53:22;;;;;;;5.00;1.75;;;25.00;61.90;;;;;;5034234;28;20502;-74
2022/06/03 09:55:55;;;;;;;3.33;1.98;;;24.70;60.90;;;;;;5033687;28;20164;-74
2022/06/03 09:58:24;;;;;;;4.22;1.98;;;24.80;61.00;;;;;;5049630;28;20181;-74
2022/06/03 10:00:53;;;;;;;4.05;1.80;;;25.00;61.10;;;;;;5049602;28;20181;-74
2022/06/03 10:03:19;;;;;;;3.50;1.90;;;25.20;60.50;;;;;;5033614;28;20247;-75
2022/06/03 10:05:50;;;;;;;2.10;1.90;;;25.20;59.70;;;;;;5034430;28;20203;-76
2022/06/03 10:08:20;;;;;;;2.20;1.90;;;25.30;59.80;;;;;;5049301;28;20582;-72
2022/06/03 10:13:33;;;;;;;2.00;1.80;;;25.10;59.60;;;;;;5033379;28;20164;-70
2022/06/03 10:16:00;;;;;;;4.03;1.80;;;25.20;59.20;;;;;;5033567;28;20616;-71
2022/06/03 10:18:46;;;;;;;2.72;2.25;;;25.10;59.00;;;;;;5032334;28;20231;-73
2022/06/03 10:21:12;;;;;;;2.10;1.58;;;25.20;59.10;;;;;;5034034;28;20189;-72
2022/06/03 10:23:53;;;;;;;2.40;2.17;;;25.30;59.70;;;;;;5034054;28;20209;-74
2022/06/03 10:26:24;;;;;;;1.80;1.70;;;25.20;59.20;;;;;;5033743;28;20200;-74
2022/06/03 10:28:52;;;;;;;3.95;2.50;;;25.40;59.10;;;;;;5034346;28;20165;-77
2022/06/03 10:31:21;;;;;;;2.30;2.10;;;25.80;59.20;;;;;;5033890;28;20169;-70
2022/06/03 10:33:58;;;;;;;2.47;2.08;;;25.50;58.60;;;;;;5033760;28;20173;-74
2022/06/03 10:36:31;;;;;;;4.15;2.35;;;25.30;58.20;;;;;;5049285;28;20559;-74
2022/06/03 10:38:57;;;;;;;2.20;2.00;;;25.60;58.90;;;;;;5034875;28;20259;-72
2022/06/03 10:41:38;;;;;;;1.98;1.80;;;25.60;58.40;;;;;;5034237;28;20173;-72
2022/06/03 10:44:17;;;;;;;4.13;2.13;;;25.70;58.70;;;;;;5033453;28;20325;-69
2022/06/03 10:47:04;;;;;;;1.80;1.70;;;25.80;58.30;;;;;;5033095;28;20224;-70
2022/06/03 10:49:48;;;;;;;2.28;2.03;;;25.70;58.40;;;;;;5033075;28;20164;-69
2022/06/03 11:01:06;;;;;;;3.67;1.80;;;26.40;57.50;;;;;;5032919;28;20695;-70
2022/06/03 11:03:34;;;;;;;2.10;1.90;;;26.40;57.00;;;;;;5032882;28;20220;-71
2022/06/03 11:06:14;;;;;;;2.38;1.83;;;26.40;57.70;;;;;;5034204;28;20203;-70
2022/06/03 11:08:49;;;;;;;2.45;1.80;;;26.60;57.30;;;;;;5038094;28;20157;-68
2022/06/03 11:11:33;;;;;;;1.98;1.80;;;26.70;57.60;;;;;;5038571;28;20222;-69
2022/06/03 11:14:28;;;;;;;2.00;1.80;;;26.50;56.30;;;;;;5038064;28;20168;-70
2022/06/03 11:16:53;;;;;;;2.17;1.98;;;26.60;56.70;;;;;;5037992;28;20188;-69
2022/06/03 11:19:20;;;;;;;3.80;2.25;;;26.60;56.80;;;;;;5037724;28;20173;-68
2022/06/03 11:21:46;;;;;;;2.22;1.90;;;26.50;56.20;;;;;;5038874;28;20188;-69
2022/06/03 11:24:11;;;;;;;3.15;1.92;;;26.60;57.00;;;;;;5038864;28;20581;-70
2022/06/03 11:26:45;;;;;;;2.47;1.80;;;26.60;56.90;;;;;;5055864;28;20205;-70
2022/06/03 11:29:23;;;;;;;3.42;1.90;;;26.80;56.40;;;;;;5040372;28;20172;-69
2022/06/03 11:31:50;;;;;;;2.30;2.10;;;26.60;56.80;;;;;;5036748;28;20172;-69
2022/06/03 11:34:51;;;;;;;2.17;1.98;;;26.90;56.50;;;;;;5036622;28;20165;-70
2022/06/03 11:37:27;;;;;;;33.58;18.42;;;26.70;56.40;;;;;;5014827;28;20203;-72
2022/06/03 11:40:22;;;;;;;3.78;2.65;;;26.90;56.70;;;;;;5033294;28;20226;-72
2022/06/03 11:42:51;;;;;;;2.95;2.20;;;26.80;56.40;;;;;;5036882;28;20212;-70
2022/06/03 11:45:24;;;;;;;4.97;2.42;;;26.70;56.10;;;;;;5024346;28;20220;-76
2022/06/03 11:48:17;;;;;;;2.08;1.85;;;26.60;56.80;;;;;;5017246;28;20170;-70
2022/06/03 11:50:43;;;;;;;3.28;1.77;;;26.80;57.00;;;;;;5017244;28;20157;-72
2022/06/03 11:53:09;;;;;;;2.65;2.00;;;27.10;56.90;;;;;;5016816;28;20295;-70
2022/06/03 11:55:36;;;;;;;3.00;1.92;;;27.20;56.40;;;;;;5016921;28;20313;-71
2022/06/03 11:58:12;;;;;;;2.33;2.00;;;27.10;56.10;;;;;;5016763;28;20185;-72
2022/06/03 12:00:45;;;;;;;3.53;2.17;;;27.00;56.60;;;;;;5016772;28;20605;-71
2022/06/03 12:03:23;;;;;;;1.90;1.80;;;27.00;56.10;;;;;;5016573;28;20228;-70
2022/06/03 12:06:04;;;;;;;7.45;2.00;;;27.20;56.10;;;;;;5034919;28;20236;-70
2022/06/03 12:08:49;;;;;;;3.65;2.00;;;27.40;55.40;;;;;;5036199;28;20477;-71
2022/06/03 12:14:24;;;;;;;3.42;2.17;;;27.50;54.70;;;;;;5035924;28;20540;-70
2022/06/03 12:16:57;;;;;;;2.15;1.95;;;27.70;55.40;;;;;;5034535;28;20175;-71
2022/06/03 12:19:44;;;;;;;2.10;1.80;;;27.80;54.20;;;;;;5034756;28;20162;-69
2022/06/03 12:22:30;;;;;;;3.17;2.05;;;27.60;53.90;;;;;;5035677;28;20169;-70
2022/06/03 12:24:58;;;;;;;3.33;2.35;;;27.70;54.20;;;;;;5034787;28;20212;-70
2022/06/03 12:27:38;;;;;;;3.70;2.80;;;27.40;54.30;;;;;;5036151;28;20197;-67
2022/06/03 12:30:10;;;;;;;2.10;2.00;;;27.50;54.30;;;;;;5035441;28;20246;-71
2022/06/03 12:32:38;;;;;;;2.40;2.20;;;27.20;54.60;;;;;;5035461;28;20246;-72
2022/06/03 12:35:47;;;;;;;2.33;2.13;;;27.70;54.90;;;;;;5037101;28;20163;-70
2022/06/03 12:38:19;;;;;;;5.07;2.17;;;27.60;54.20;;;;;;5041562;28;20303;-71
2022/06/03 12:40:47;;;;;;;2.42;2.00;;;27.50;53.70;;;;;;5037399;28;20568;-71
2022/06/03 12:43:30;;;;;;;2.55;1.88;;;27.50;53.30;;;;;;5035426;28;20180;-71
2022/06/03 12:46:08;;;;;;;2.53;2.20;;;27.60;54.20;;;;;;5034051;28;20298;-71
2022/06/03 12:48:48;;;;;;;4.93;2.75;;;27.60;52.30;;;;;;5035236;28;20527;-72
2022/06/03 12:51:24;;;;;;;2.17;1.98;;;28.00;53.60;;;;;;5035374;28;20157;-71
2022/06/03 12:53:58;;;;;;;2.60;1.80;;;28.50;53.60;;;;;;5034015;28;20188;-70
2022/06/03 12:56:26;;;;;;;2.40;2.20;;;27.60;51.70;;;;;;5035596;28;20581;-71
2022/06/03 12:59:05;;;;;;;2.10;1.90;;;27.10;53.90;;;;;;5033531;28;20181;-72
2022/06/03 13:01:44;;;;;;;1.95;1.85;;;27.20;53.90;;;;;;5033462;28;20184;-71
2022/06/03 13:04:37;;;;;;;4.82;2.75;;;27.40;53.20;;;;;;5035024;28;20174;-72
2022/06/03 13:07:29;;;;;;;5.43;2.53;;;28.00;54.10;;;;;;5033482;28;20644;-71
2022/06/03 13:10:04;;;;;;;2.88;1.70;;;28.00;53.20;;;;;;5034662;28;20153;-75
2022/06/03 13:12:33;;;;;;;2.35;2.03;;;27.70;51.80;;;;;;5034878;28;20168;-71
2022/06/03 13:15:19;;;;;;;3.30;2.28;;;27.90;52.90;;;;;;5034937;28;20219;-70
2022/06/03 13:18:02;;;;;;;3.75;1.83;;;27.50;52.80;;;;;;5034938;28;20271;-72
2022/06/03 13:20:44;;;;;;;2.05;1.83;;;27.60;52.80;;;;;;5036924;28;20222;-72
2022/06/03 13:23:19;;;;;;;2.53;1.80;;;27.90;51.70;;;;;;5046870;28;20192;-75
2022/06/03 13:25:47;;;;;;;4.30;1.88;;;27.80;51.50;;;;;;5047497;28;20251;-73
2022/06/03 13:28:31;;;;;;;2.63;2.10;;;28.00;51.90;;;;;;5050840;28;20173;-73
2022/06/03 13:31:27;;;;;;;2.30;2.10;;;27.80;51.20;;;;;;5050083;28;20165;-72
2022/06/03 13:34:07;;;;;;;2.45;2.00;;;27.90;51.50;;;;;;5034304;28;20203;-73
2022/06/03 13:36:35;;;;;;;2.10;1.85;;;28.10;51.30;;;;;;5034287;28;20157;-72
2022/06/03 13:39:02;;;;;;;3.97;2.17;;;28.20;49.60;;;;;;5034677;28;20256;-71
2022/06/03 13:44:36;;;;;;;2.95;1.60;;;28.00;48.00;;;;;;5034431;28;20201;-72
2022/06/03 13:47:20;;;;;;;2.50;2.10;;;28.10;49.60;;;;;;5034117;28;20643;-70
2022/06/03 13:50:13;;;;;;;3.08;1.60;;;28.50;51.00;;;;;;5034248;28;20186;-72
2022/06/03 13:52:40;;;;;;;2.63;1.98;;;28.00;50.90;;;;;;5034185;28;20169;-72
2022/06/03 13:55:14;;;;;;;2.40;2.20;;;28.10;51.40;;;;;;5033910;28;20483;-72
2022/06/03 13:57:42;;;;;;;1.83;1.65;;;28.20;51.10;;;;;;5033702;28;20172;-71
2022/06/03 14:00:26;;;;;;;4.28;2.00;;;28.30;50.90;;;;;;5034377;28;20501;-71
2022/06/03 14:03:12;;;;;;;2.17;1.90;;;27.50;50.80;;;;;;5034246;28;20660;-71
2022/06/03 14:05:42;;;;;;;2.53;1.90;;;27.90;50.80;;;;;;5034104;28;20161;-71
2022/06/03 14:08:18;;;;;;;2.95;1.90;;;28.10;49.80;;;;;;5034091;28;20168;-71
2022/06/03 14:11:00;;;;;;;2.97;1.85;;;28.40;50.30;;;;;;5034087;28;20199;-73
2022/06/03 14:13:58;;;;;;;2.17;1.70;;;28.10;50.90;;;;;;5033611;28;20244;-71
2022/06/03 14:16:38;;;;;;;1.80;1.70;;;27.70;49.80;;;;;;5014871;28;20216;-71
2022/06/03 14:19:10;;;;;;;4.03;2.10;;;28.10;50.30;;;;;;5033869;28;20209;-70
2022/06/03 14:21:43;;;;;;;2.05;1.80;;;28.10;50.40;;;;;;5033663;28;20190;-71
2022/06/03 14:24:41;;;;;;;2.00;1.83;;;28.10;50.90;;;;;;5036917;28;20267;-73
2022/06/03 14:27:25;;;;;;;2.20;2.00;;;27.80;51.70;;;;;;5036755;28;20212;-72
2022/06/03 14:30:01;;;;;;;2.22;1.98;;;27.50;51.20;;;;;;5035204;28;20164;-72